createdAt,value
2022-11-25T00:03:57.874Z,2.69
2022-11-25T00:09:29.627Z,2.67
2022-11-25T00:15:01.330Z,2.64
2022-11-25T00:20:32.949Z,2.61
2022-11-25T00:26:04.442Z,2.58
2022-11-25T00:31:36.341Z,2.53
2022-11-25T00:37:08.074Z,2.48
2022-11-25T00:42:45.974Z,2.43
2022-11-25T00:48:17.585Z,2.39
2022-11-25T00:53:50.282Z,2.35
2022-11-25T00:59:21.215Z,2.30
2022-11-25T01:10:24.859Z,2.20
2022-11-25T01:15:56.827Z,2.14
2022-11-25T01:21:28.546Z,2.07
2022-11-25T01:27:06.242Z,2.01
2022-11-25T01:32:37.999Z,1.95
2022-11-25T01:38:09.839Z,1.92
2022-11-25T01:43:47.724Z,1.89
2022-11-25T01:49:19.407Z,1.85
2022-11-25T01:54:50.745Z,1.80
2022-11-25T02:00:22.026Z,1.77
2022-11-25T02:05:53.483Z,1.73
2022-11-25T02:11:25.247Z,1.71
2022-11-25T02:16:56.684Z,1.70
2022-11-25T02:22:28.520Z,1.70
2022-11-25T02:28:00.195Z,1.71
2022-11-25T02:33:32.335Z,1.71
2022-11-25T02:39:03.878Z,1.71
2022-11-25T02:44:36.108Z,1.71
2022-11-25T02:50:07.636Z,1.73
2022-11-25T02:55:39.483Z,1.74
2022-11-25T03:01:11.268Z,1.75
2022-11-25T03:06:42.782Z,1.77
2022-11-25T03:12:14.623Z,1.78
2022-11-25T03:17:46.672Z,1.79
2022-11-25T03:23:18.515Z,1.80
2022-11-25T03:28:50.262Z,1.81
2022-11-25T03:34:22.037Z,1.81
2022-11-25T03:39:53.589Z,1.82
2022-11-25T03:45:25.659Z,1.82
2022-11-25T03:50:57.465Z,1.82
2022-11-25T03:56:35.301Z,1.83
2022-11-25T04:02:06.829Z,1.83
2022-11-25T04:07:38.969Z,1.84
2022-11-25T04:13:17.028Z,1.85
2022-11-25T04:18:49.069Z,1.86
2022-11-25T04:24:20.659Z,1.88
2022-11-25T04:29:58.740Z,1.89
2022-11-25T04:35:30.389Z,1.90
2022-11-25T04:41:02.333Z,1.92
2022-11-25T04:46:34.078Z,1.95
2022-11-25T04:52:05.800Z,2.00
2022-11-25T04:57:37.523Z,2.03
2022-11-25T05:08:41.208Z,2.09
2022-11-25T05:14:13.115Z,2.11
2022-11-25T05:19:44.999Z,2.13
2022-11-25T05:25:22.504Z,2.18
2022-11-25T05:30:54.645Z,2.21
2022-11-25T05:36:26.221Z,2.21
2022-11-25T05:41:58.064Z,2.18
2022-11-25T05:47:29.895Z,2.17
2022-11-25T05:53:01.808Z,2.18
2022-11-25T05:58:33.927Z,2.19
2022-11-25T06:04:05.661Z,2.18
2022-11-25T06:09:37.689Z,2.19
2022-11-25T06:15:09.596Z,2.20
2022-11-25T06:20:41.486Z,2.22
2022-11-25T06:26:13.377Z,2.25
2022-11-25T06:31:45.417Z,2.30
2022-11-25T06:37:17.283Z,2.34
2022-11-25T06:42:49.185Z,2.38
2022-11-25T06:48:20.596Z,2.44
2022-11-25T06:53:52.337Z,2.50
2022-11-25T06:59:24.429Z,2.58
2022-11-25T07:04:55.895Z,2.74
2022-11-25T07:10:27.694Z,2.98
2022-11-25T07:15:59.514Z,3.23
2022-11-25T07:21:36.924Z,3.45
2022-11-25T07:27:08.465Z,3.63
2022-11-25T07:34:53.742Z,3.62
2022-11-25T07:40:24.612Z,3.82
2022-11-25T07:45:56.174Z,3.93
2022-11-25T07:51:28.056Z,4.01
2022-11-25T07:56:59.743Z,4.08
2022-11-25T08:08:03.208Z,4.25
2022-11-25T08:13:34.856Z,4.36
2022-11-25T08:19:06.935Z,4.48
2022-11-25T08:24:38.621Z,4.59
2022-11-25T08:30:10.320Z,4.70
2022-11-25T08:35:41.885Z,4.81
2022-11-25T08:41:13.573Z,4.91
2022-11-25T08:46:45.656Z,5.02
2022-11-25T08:52:17.239Z,5.13
2022-11-25T08:57:48.794Z,5.18
2022-11-25T09:03:20.750Z,5.22
2022-11-25T09:08:58.224Z,5.28
2022-11-25T09:14:36.109Z,5.40
2022-11-25T09:20:07.746Z,5.60
2022-11-25T09:25:39.678Z,5.85
2022-11-25T09:31:11.433Z,6.14
2022-11-25T09:36:49.036Z,6.47
2022-11-25T09:47:55.724Z,7.09
2022-11-25T09:53:22.098Z,7.31
2022-11-25T09:58:53.843Z,7.43
2022-11-25T10:04:25.733Z,7.58
2022-11-25T10:09:57.379Z,7.74
2022-11-25T10:12:20.856Z,7.59
2022-11-25T10:17:52.457Z,7.81
2022-11-25T10:23:27.992Z,7.99
2022-11-25T10:28:55.993Z,8.17
2022-11-25T10:34:27.741Z,8.34
2022-11-25T10:39:59.733Z,8.49
2022-11-25T10:45:31.326Z,8.62
2022-11-25T10:51:03.429Z,8.76
2022-11-25T10:56:34.996Z,8.89
2022-11-25T11:02:06.933Z,9.01
2022-11-25T11:07:38.679Z,9.12
2022-11-25T11:13:10.327Z,9.24
2022-11-25T11:18:42.194Z,9.35
2022-11-25T11:24:19.764Z,9.48
2022-11-25T11:29:51.620Z,9.59
2022-11-25T11:35:23.494Z,9.68
2022-11-25T11:40:55.074Z,9.76
2022-11-25T11:46:27.027Z,9.86
2022-11-25T11:51:58.713Z,10.00
2022-11-25T11:57:30.522Z,10.15
2022-11-25T12:03:02.411Z,10.30
2022-11-25T12:08:34.149Z,10.44
2022-11-25T12:14:05.871Z,10.55
2022-11-25T12:19:37.640Z,10.63
2022-11-25T12:25:15.483Z,10.69
2022-11-25T12:30:49.016Z,10.74
2022-11-25T12:36:20.480Z,10.78
2022-11-25T12:47:21.891Z,10.93
2022-11-25T12:52:53.525Z,11.07
2022-11-25T12:58:31.336Z,11.24
2022-11-25T13:04:02.458Z,11.43
2022-11-25T13:09:34.047Z,11.63
2022-11-25T13:15:06.172Z,11.80
2022-11-25T13:20:37.729Z,11.94
2022-11-25T13:26:09.226Z,12.04
2022-11-25T13:31:40.756Z,12.09
2022-11-25T13:42:47.805Z,12.10
2022-11-25T13:48:19.618Z,12.06
2022-11-25T13:53:57.546Z,12.03
2022-11-25T13:59:29.125Z,12.00
2022-11-25T14:05:00.951Z,11.98
2022-11-25T14:10:32.721Z,11.89
2022-11-25T14:16:07.125Z,11.74
2022-11-25T14:21:35.579Z,11.63
2022-11-25T14:27:07.055Z,11.52
2022-11-25T14:32:38.207Z,11.36
2022-11-25T14:38:09.801Z,11.20
2022-11-25T14:43:41.394Z,11.07
2022-11-25T14:49:30.575Z,10.94
2022-11-25T14:54:44.318Z,10.75
2022-11-25T15:00:19.160Z,10.48
2022-11-25T15:05:50.970Z,10.20
2022-11-25T15:11:22.727Z,10.01
2022-11-25T15:16:54.259Z,9.86
2022-11-25T15:22:25.764Z,9.71
2022-11-25T15:27:57.602Z,9.58
2022-11-25T15:33:29.482Z,9.45
2022-11-25T15:39:01.352Z,9.34
2022-11-25T15:44:34.339Z,9.26
2022-11-25T15:50:06.410Z,9.18
2022-11-25T15:55:38.211Z,9.12
2022-11-25T16:01:10.197Z,9.07
2022-11-25T16:06:41.657Z,9.03
2022-11-25T16:12:13.484Z,8.99
2022-11-25T16:17:45.352Z,8.96
2022-11-25T16:23:16.922Z,8.93
2022-11-25T16:28:48.891Z,8.92
2022-11-25T16:34:20.754Z,8.90
2022-11-25T16:39:52.533Z,8.89
2022-11-25T16:45:24.631Z,8.83
2022-11-25T16:50:56.081Z,8.73
2022-11-25T16:56:27.956Z,8.63
2022-11-25T17:02:00.504Z,8.54
2022-11-25T17:07:33.682Z,8.48
2022-11-25T17:13:04.359Z,8.44
2022-11-25T17:18:36.032Z,8.41
2022-11-25T17:24:07.886Z,8.39
2022-11-25T17:29:40.383Z,8.37
2022-11-25T17:35:11.859Z,8.36
2022-11-25T17:40:49.759Z,8.34
2022-11-25T17:48:42.565Z,7.87
2022-11-25T18:05:27.867Z,8.14
2022-11-25T18:11:00.186Z,8.12
2022-11-25T18:16:31.972Z,8.09
2022-11-25T18:27:33.391Z,8.02
2022-11-25T18:38:49.252Z,7.97
2022-11-25T18:44:25.681Z,7.95
2022-11-25T18:49:56.204Z,7.93
2022-11-25T18:55:24.120Z,7.92
2022-11-25T19:03:17.260Z,7.46
2022-11-25T19:08:49.159Z,7.63
2022-11-25T19:14:20.852Z,7.70
2022-11-25T19:19:52.518Z,7.71
2022-11-25T19:25:24.469Z,7.69
2022-11-25T19:31:02.304Z,7.64
2022-11-25T19:36:33.927Z,7.59
2022-11-25T19:42:11.789Z,7.53
2022-11-25T19:47:43.429Z,7.46
2022-11-25T19:53:15.391Z,7.38
2022-11-25T19:58:47.247Z,7.29
2022-11-25T20:04:24.662Z,7.21
2022-11-25T20:09:56.766Z,7.13
2022-11-25T20:15:27.990Z,7.04
2022-11-25T20:20:59.477Z,6.93
2022-11-25T20:26:31.549Z,6.83
2022-11-25T20:32:03.253Z,6.72
2022-11-25T20:37:35.091Z,6.63
2022-11-25T20:43:06.646Z,6.55
2022-11-25T20:48:38.461Z,6.49
2022-11-25T20:56:30.386Z,5.95
2022-11-25T21:02:01.729Z,6.13
2022-11-25T21:07:33.265Z,6.21
2022-11-25T21:13:10.701Z,6.27
2022-11-25T21:18:42.602Z,6.31
2022-11-25T21:29:52.054Z,6.37
2022-11-25T21:35:24.029Z,6.39
2022-11-25T21:40:55.548Z,6.40
2022-11-25T21:46:27.142Z,6.41
2022-11-25T21:51:58.669Z,6.42
2022-11-25T21:57:30.670Z,6.42
2022-11-25T22:03:02.745Z,6.44
2022-11-25T22:08:34.414Z,6.47
2022-11-25T22:19:38.141Z,6.55
2022-11-25T22:25:10.127Z,6.59
2022-11-25T22:30:42.062Z,6.64
2022-11-25T22:36:13.615Z,6.69
2022-11-25T22:41:45.689Z,6.73
2022-11-25T22:47:17.284Z,6.78
2022-11-25T22:52:49.528Z,6.82
2022-11-25T22:58:21.924Z,6.86
2022-11-25T23:03:54.054Z,6.89
2022-11-25T23:09:28.126Z,6.92
2022-11-25T23:14:59.982Z,6.95
2022-11-25T23:20:31.885Z,6.97
2022-11-25T23:26:03.984Z,6.98
2022-11-25T23:31:36.195Z,6.99
2022-11-25T23:37:08.130Z,6.98
2022-11-25T23:42:39.902Z,6.97
2022-11-25T23:48:11.799Z,6.96
2022-11-25T23:53:43.741Z,6.95
2022-11-25T23:59:16.081Z,6.94
